Waterloo, IA (50703)

7:58 PM CDT on September 21, 2014 (GMT -0500)
Columbus Dr - Waterloo | Change Station
CLOSE
Current Station
Personal Weather Station
Location: Waterloo, IA
Elevation: 910 ft
Nearby Weather Stations

Elev 910 ft 42.47 °N, 92.34 °W | Updated 6 seconds ago

Clear
Clear
58.6 °F
Feels Like 58.6 °F
N
0.0
Wind Variable Wind from ENE
Gusts 0.0 mph

Today
High -- | Low -- °F
--% Chance of Precip.
Yesterday
High -- | Low -- °F
Precip. -- in
6:55 AM 7:08 PM
Waning Crescent, 5% visible
Pressure 30.16 in
Visibility 10.0 miles
Clouds Clear
Dew Point 50 °F
Humidity 72%
Rainfall 0.12 in
Snow Depth Not available.
UV 0 out of 12
Pollen 4.30 out of 12
Air Quality Not available.
Flu Activity Not available.
METAR KALO 212354Z 34010KT 10SM CLR 16/08 A3015 RMK AO2 SLP211 T01610083 10194 20150 53013

More Conditions Fewer Conditions

Pressure 30.16 in
Visibility 10.0 miles
Clouds Clear
Dew Point 50 °F
Humidity 72%
Rainfall 0.12 in
Snow Depth Not available.
UV 0 out of 12
Pollen 4.30 out of 12
Air Quality Not available.
Flu Activity Not available.
METAR KALO 212354Z 34010KT 10SM CLR 16/08 A3015 RMK AO2 SLP211 T01610083 10194 20150 53013

More Conditions Fewer Conditions

10-Day Weather Forecast

Almanac

Astronomy

Sep. 21, 2014 Rise Set
Actual Time 6:55 AM CDT 7:08 PM CDT
Civil Twilight 6:27 AM CDT 7:36 PM CDT
Nautical Twilight 5:54 AM CDT 8:09 PM CDT
Astronomical Twilight 5:20 AM CDT 8:42 PM CDT
Moon 4:27 AM CDT (9/21) 5:46 PM CDT (9/21)
Length of Visible Light 13h 08m
Length of Day
12h 12m
Tomorrow will be 2m 51s shorter.
Waning Crescent, 5% of the Moon is Illuminated
Today
Waning Crescent
Sep 24
New
Oct 1
First Quarter
Oct 8
Full
Oct 15
Last Quarter

Today's Extremes

State Highs State Lows

Community

WunderPhotos

Upload Photos

1,755,316 photos uploaded!

WunderBlogs® & News

Nearby

Snow Depth

Station Depth Elevation
No new snow has been reported.

Earthquake Activity

City Distance Mag. Time & Date
No recent earthquake activity has been reported nearby.
Minimum magnitude displayed is 2.5.

Coastal Water Temperatures

Place Temperature
No Stations Reporting

Nearby Weather Stations